createdAt,value
2019-02-04T00:02:10.492Z,26.23
2019-02-04T00:04:38.734Z,15.90
2019-02-04T00:07:06.975Z,25.67
2019-02-04T00:09:35.423Z,22.13
2019-02-04T00:12:03.936Z,30.00
2019-02-04T00:14:32.189Z,19.53
2019-02-04T00:17:00.437Z,29.53
2019-02-04T00:19:28.681Z,18.57
2019-02-04T00:21:56.956Z,18.17
2019-02-04T00:24:25.572Z,24.30
2019-02-04T00:26:53.842Z,23.10
2019-02-04T00:29:22.084Z,18.57
2019-02-04T00:31:50.353Z,17.47
2019-02-04T00:34:18.568Z,21.23
2019-02-04T00:36:46.844Z,18.27
2019-02-04T00:39:15.087Z,24.37
2019-02-04T00:41:43.337Z,16.20
2019-02-04T00:44:11.605Z,31.20
2019-02-04T00:46:39.843Z,29.40
2019-02-04T00:49:08.111Z,15.20
2019-02-04T00:51:36.356Z,27.23
2019-02-04T00:54:04.670Z,16.63
2019-02-04T00:56:33.319Z,22.20
2019-02-04T00:59:01.560Z,16.23
2019-02-04T01:01:29.776Z,16.50
2019-02-04T01:03:58.020Z,9.13
2019-02-04T01:06:26.408Z,18.87
2019-02-04T01:08:54.683Z,27.97
2019-02-04T01:11:22.920Z,15.97
2019-02-04T01:13:51.194Z,14.00
2019-02-04T01:16:19.407Z,14.77
2019-02-04T01:18:47.648Z,25.80
2019-02-04T01:21:15.894Z,18.80
2019-02-04T01:23:44.136Z,15.47
2019-02-04T01:26:12.380Z,13.43
2019-02-04T01:28:40.625Z,15.43
2019-02-04T01:31:08.845Z,7.83
2019-02-04T01:33:37.083Z,25.67
2019-02-04T01:36:05.401Z,12.63
2019-02-04T01:38:33.715Z,16.07
2019-02-04T01:41:01.891Z,21.17
2019-02-04T01:43:30.435Z,19.47
2019-02-04T01:45:58.748Z,24.20
2019-02-04T01:48:26.992Z,24.00
2019-02-04T01:50:55.285Z,35.33
2019-02-04T01:53:23.508Z,10.13
2019-02-04T01:55:51.781Z,11.60
2019-02-04T01:58:20.496Z,13.93
2019-02-04T02:00:48.769Z,20.50
2019-02-04T02:03:17.008Z,29.97
2019-02-04T02:05:48.787Z,16.07
2019-02-04T02:08:17.003Z,22.83
2019-02-04T02:10:45.246Z,28.57
2019-02-04T02:13:13.891Z,18.67
2019-02-04T02:15:42.112Z,24.37
2019-02-04T02:18:10.357Z,12.07
2019-02-04T02:20:38.568Z,12.63
2019-02-04T02:23:06.815Z,22.60
2019-02-04T02:25:35.161Z,22.80
2019-02-04T02:28:04.111Z,8.57
2019-02-04T02:30:32.592Z,8.03
2019-02-04T02:33:00.871Z,14.87
2019-02-04T02:35:29.120Z,20.03
2019-02-04T02:37:57.411Z,25.00
2019-02-04T02:40:27.028Z,17.33
2019-02-04T02:42:55.313Z,16.67
2019-02-04T02:45:23.629Z,22.17
2019-02-04T02:47:51.848Z,21.97
2019-02-04T02:50:20.164Z,24.33
2019-02-04T02:52:48.384Z,19.53
2019-02-04T02:55:17.300Z,19.40
2019-02-04T02:57:45.578Z,25.07
2019-02-04T03:00:15.699Z,22.07
2019-02-04T03:02:43.915Z,23.40
2019-02-04T03:05:13.532Z,20.17
2019-02-04T03:07:41.814Z,30.10
2019-02-04T03:10:17.340Z,25.73
2019-02-04T03:12:46.023Z,18.57
2019-02-04T03:15:14.439Z,22.80
2019-02-04T03:17:51.649Z,18.00
2019-02-04T03:20:12.883Z,20.40
2019-02-04T03:22:41.163Z,21.63
2019-02-04T03:25:10.674Z,17.70
2019-02-04T03:27:39.192Z,18.47
2019-02-04T03:30:08.973Z,20.27
2019-02-04T03:32:37.189Z,20.13
2019-02-04T03:35:05.901Z,12.83
2019-02-04T03:37:34.107Z,22.93
2019-02-04T03:40:02.723Z,19.30
2019-02-04T03:42:31.235Z,16.77
2019-02-04T03:44:59.473Z,18.77
2019-02-04T03:47:27.687Z,20.27
2019-02-04T03:49:55.932Z,19.90
2019-02-04T03:52:24.147Z,16.57
2019-02-04T03:54:52.383Z,22.83
2019-02-04T03:57:20.676Z,15.73
2019-02-04T03:59:48.919Z,22.73
2019-02-04T04:02:17.203Z,28.07
2019-02-04T04:04:45.619Z,18.43
2019-02-04T04:07:13.831Z,25.37
2019-02-04T04:09:42.071Z,18.10
2019-02-04T04:12:10.290Z,15.70
2019-02-04T04:14:38.603Z,23.00
2019-02-04T04:17:06.883Z,18.73
2019-02-04T04:19:35.159Z,17.40
2019-02-04T04:22:03.475Z,20.00
2019-02-04T04:24:31.692Z,21.87
2019-02-04T04:27:00.005Z,21.80
2019-02-04T04:29:28.620Z,19.70
2019-02-04T04:31:56.863Z,19.03
2019-02-04T04:34:25.071Z,16.67
2019-02-04T04:36:53.424Z,21.57
2019-02-04T04:39:21.672Z,17.47
2019-02-04T04:41:49.908Z,17.50
2019-02-04T04:44:18.118Z,21.63
2019-02-04T04:46:46.369Z,24.03
2019-02-04T04:49:14.612Z,24.83
2019-02-04T04:51:42.859Z,14.03
2019-02-04T04:54:11.078Z,15.47
2019-02-04T04:56:39.319Z,21.30
2019-02-04T04:59:07.541Z,18.03
2019-02-04T05:01:36.058Z,18.80
2019-02-04T05:04:04.340Z,22.63
2019-02-04T05:06:32.582Z,22.63
2019-02-04T05:09:00.867Z,22.37
2019-02-04T05:11:29.179Z,19.27
2019-02-04T05:13:57.391Z,19.40
2019-02-04T05:16:25.939Z,19.97
2019-02-04T05:18:54.151Z,23.20
2019-02-04T05:21:22.391Z,16.93
2019-02-04T05:23:50.612Z,26.17
2019-02-04T05:26:18.847Z,20.10
2019-02-04T05:28:47.058Z,16.97
2019-02-04T05:31:15.504Z,16.70
2019-02-04T05:33:43.720Z,19.83
2019-02-04T05:36:11.964Z,17.07
2019-02-04T05:38:40.204Z,21.73
2019-02-04T05:41:08.446Z,21.30
2019-02-04T05:43:36.660Z,16.23
2019-02-04T05:46:04.948Z,16.33
2019-02-04T05:48:33.396Z,20.37
2019-02-04T05:51:01.713Z,16.90
2019-02-04T05:53:29.993Z,16.83
2019-02-04T05:55:58.168Z,14.43
2019-02-04T05:58:26.411Z,15.20
2019-02-04T06:00:54.622Z,18.67
2019-02-04T06:03:23.072Z,25.10
2019-02-04T06:05:51.287Z,21.10
2019-02-04T06:08:19.523Z,19.03
2019-02-04T06:10:47.744Z,23.77
2019-02-04T06:13:15.988Z,29.80
2019-02-04T06:15:44.198Z,17.27
2019-02-04T06:18:12.439Z,21.60
2019-02-04T06:20:40.751Z,24.03
2019-02-04T06:23:09.072Z,19.60
2019-02-04T06:25:37.292Z,22.30
2019-02-04T06:28:05.604Z,22.93
2019-02-04T06:30:33.815Z,21.50
2019-02-04T06:33:02.136Z,21.80
2019-02-04T06:35:30.543Z,21.97
2019-02-04T06:37:58.797Z,23.73
2019-02-04T06:40:27.015Z,16.47
2019-02-04T06:42:55.261Z,20.67
2019-02-04T06:45:23.548Z,33.17
2019-02-04T06:47:51.799Z,25.10
2019-02-04T06:50:20.884Z,29.23
2019-02-04T06:52:49.127Z,32.50
2019-02-04T06:55:18.884Z,24.77
2019-02-04T06:57:47.127Z,23.40
2019-02-04T07:00:16.620Z,25.37
2019-02-04T07:02:45.024Z,35.47
2019-02-04T07:05:13.304Z,30.70
2019-02-04T07:07:41.551Z,29.50
2019-02-04T07:10:17.484Z,30.70
2019-02-04T07:12:45.726Z,31.97
2019-02-04T07:15:14.119Z,30.50
2019-02-04T07:17:42.534Z,40.67
2019-02-04T07:20:14.999Z,31.73
2019-02-04T07:22:43.231Z,18.70
2019-02-04T07:25:13.217Z,24.60
2019-02-04T07:27:41.439Z,27.10
2019-02-04T07:30:11.211Z,26.33
2019-02-04T07:32:39.431Z,38.83
2019-02-04T07:35:09.435Z,48.70
2019-02-04T07:37:37.687Z,45.43
2019-02-04T07:40:07.454Z,38.17
2019-02-04T07:42:35.692Z,52.37
2019-02-04T07:45:05.281Z,36.03
2019-02-04T07:47:33.528Z,36.10
2019-02-04T07:50:01.744Z,24.97
2019-02-04T07:52:29.987Z,33.63
2019-02-04T07:54:58.236Z,40.40
2019-02-04T07:57:26.452Z,23.07
2019-02-04T07:59:54.687Z,10.90
2019-02-04T08:02:22.912Z,14.23
2019-02-04T08:04:51.155Z,24.47
2019-02-04T08:07:19.679Z,22.40
2019-02-04T08:09:47.919Z,11.37
2019-02-04T08:12:16.127Z,7.80
2019-02-04T08:14:45.344Z,7.97
2019-02-04T08:17:13.571Z,9.47
2019-02-04T08:19:46.976Z,7.00
2019-02-04T08:22:11.668Z,7.63
2019-02-04T08:24:39.903Z,9.33
2019-02-04T08:27:08.153Z,11.57
2019-02-04T08:29:36.367Z,19.73
2019-02-04T08:32:04.951Z,20.07
2019-02-04T08:34:33.177Z,15.70
2019-02-04T08:37:01.415Z,15.47
2019-02-04T08:39:30.003Z,24.07
2019-02-04T08:41:58.243Z,19.27
2019-02-04T08:44:26.458Z,15.97
2019-02-04T08:46:54.755Z,14.03
2019-02-04T08:49:23.008Z,126.80
2019-02-04T08:51:51.221Z,14.63
2019-02-04T08:54:19.472Z,22.23
2019-02-04T08:56:47.684Z,17.70
2019-02-04T08:59:15.935Z,21.53
2019-02-04T09:01:44.228Z,20.47
2019-02-04T09:04:12.467Z,53.13
2019-02-04T09:06:40.711Z,66.90
2019-02-04T09:09:09.599Z,24.47
2019-02-04T09:11:37.920Z,28.10
2019-02-04T09:14:06.208Z,32.67
2019-02-04T09:16:34.451Z,47.13
2019-02-04T09:19:02.771Z,29.40
2019-02-04T09:21:31.066Z,34.43
2019-02-04T09:23:59.307Z,30.13
2019-02-04T09:26:27.591Z,22.97
2019-02-04T09:28:56.139Z,19.93
2019-02-04T09:31:24.361Z,28.37
2019-02-04T09:33:52.604Z,33.43
2019-02-04T09:36:20.896Z,24.13
2019-02-04T09:38:49.143Z,32.10
2019-02-04T09:41:17.363Z,35.77
2019-02-04T09:43:45.602Z,43.60
2019-02-04T09:46:14.124Z,45.80
2019-02-04T09:48:42.371Z,45.87
2019-02-04T09:51:10.612Z,33.97
2019-02-04T09:53:38.831Z,44.80
2019-02-04T09:56:07.120Z,37.47
2019-02-04T09:58:35.367Z,41.87
2019-02-04T10:01:04.340Z,32.90
2019-02-04T10:03:32.794Z,44.43
2019-02-04T10:06:01.093Z,28.63
2019-02-04T10:08:29.308Z,30.33
2019-02-04T10:10:57.555Z,28.57
2019-02-04T10:13:25.774Z,33.10
2019-02-04T10:15:54.040Z,36.37
2019-02-04T10:18:22.607Z,41.37
2019-02-04T10:20:50.908Z,32.97
2019-02-04T10:23:19.179Z,28.00
2019-02-04T10:25:47.457Z,31.57
2019-02-04T10:28:15.763Z,27.77
2019-02-04T10:30:44.318Z,33.27
2019-02-04T10:33:13.041Z,36.37
2019-02-04T10:35:41.453Z,32.40
2019-02-04T10:38:09.771Z,37.70
2019-02-04T10:40:37.987Z,28.90
2019-02-04T10:43:06.263Z,35.87
2019-02-04T10:45:34.567Z,34.37
2019-02-04T10:48:02.800Z,30.90
2019-02-04T10:50:32.589Z,46.63
2019-02-04T10:53:00.960Z,60.90
2019-02-04T10:55:29.329Z,46.33
2019-02-04T10:57:57.817Z,30.87
2019-02-04T11:00:27.816Z,27.90
2019-02-04T11:02:56.086Z,22.80
2019-02-04T11:05:26.087Z,27.33
2019-02-04T11:07:54.393Z,27.47
2019-02-04T11:10:24.729Z,28.37
2019-02-04T11:12:53.004Z,25.87
2019-02-04T11:15:21.313Z,20.40
2019-02-04T11:17:49.607Z,22.50
2019-02-04T11:20:25.444Z,20.27
2019-02-04T11:22:53.801Z,24.50
2019-02-04T11:25:22.165Z,28.87
2019-02-04T11:27:50.444Z,42.17
2019-02-04T11:30:19.985Z,51.50
2019-02-04T11:32:48.684Z,32.97
2019-02-04T11:35:17.030Z,29.30
2019-02-04T11:37:45.322Z,32.73
2019-02-04T11:40:15.211Z,24.30
2019-02-04T11:42:43.469Z,20.93
2019-02-04T11:45:11.848Z,23.63
2019-02-04T11:47:40.169Z,22.67
2019-02-04T11:50:12.330Z,30.53
2019-02-04T11:52:40.629Z,21.03
2019-02-04T11:55:17.839Z,31.63
2019-02-04T11:57:46.252Z,24.77
2019-02-04T12:00:16.338Z,29.33
2019-02-04T12:02:44.831Z,26.07
2019-02-04T12:05:14.748Z,25.80
2019-02-04T12:07:43.030Z,21.43
2019-02-04T12:10:12.819Z,22.27
2019-02-04T12:12:41.023Z,28.13
2019-02-04T12:15:13.483Z,18.73
2019-02-04T12:17:41.695Z,20.10
2019-02-04T12:20:11.411Z,24.53
2019-02-04T12:22:39.804Z,26.07
2019-02-04T12:25:09.521Z,21.17
2019-02-04T12:27:37.809Z,27.47
2019-02-04T12:30:19.775Z,27.73
2019-02-04T12:32:48.064Z,24.23
2019-02-04T12:35:16.384Z,20.87
2019-02-04T12:37:44.604Z,20.53
2019-02-04T12:40:14.015Z,27.10
2019-02-04T12:42:42.308Z,20.83
2019-02-04T12:45:15.151Z,22.37
2019-02-04T12:47:43.423Z,25.07
2019-02-04T12:50:12.443Z,21.57
2019-02-04T12:52:40.723Z,24.00
2019-02-04T12:55:10.507Z,22.17
2019-02-04T12:57:38.792Z,22.07
2019-02-04T13:00:14.964Z,20.80
2019-02-04T13:02:43.171Z,18.83
2019-02-04T13:05:12.951Z,16.47
2019-02-04T13:07:41.231Z,15.90
2019-02-04T13:10:10.854Z,24.60
2019-02-04T13:12:39.470Z,20.13
2019-02-04T13:15:09.251Z,20.77
2019-02-04T13:17:37.532Z,20.90
2019-02-04T13:20:07.315Z,20.30
2019-02-04T13:22:35.527Z,22.03
2019-02-04T13:25:05.443Z,18.00
2019-02-04T13:27:34.132Z,21.07
2019-02-04T13:30:02.372Z,16.43
2019-02-04T13:32:30.592Z,22.87
2019-02-04T13:34:58.843Z,16.20
2019-02-04T13:37:27.064Z,15.87
2019-02-04T13:39:55.275Z,18.93
2019-02-04T13:42:23.523Z,18.10
2019-02-04T13:44:51.735Z,20.93
2019-02-04T13:47:20.047Z,20.17
2019-02-04T13:49:48.257Z,20.63
2019-02-04T13:52:16.496Z,19.67
2019-02-04T13:54:44.718Z,17.83
2019-02-04T13:57:12.962Z,23.90
2019-02-04T13:59:41.473Z,16.37
2019-02-04T14:02:09.787Z,21.27
2019-02-04T14:04:38.063Z,16.93
2019-02-04T14:07:06.378Z,24.53
2019-02-04T14:09:34.659Z,19.97
2019-02-04T14:12:02.970Z,15.73
2019-02-04T14:14:31.660Z,22.63
2019-02-04T14:16:59.906Z,20.27
2019-02-04T14:19:28.119Z,19.90
2019-02-04T14:21:56.375Z,19.47
2019-02-04T14:24:24.576Z,16.00
2019-02-04T14:26:52.818Z,20.33
2019-02-04T14:29:21.431Z,23.13
2019-02-04T14:31:49.680Z,24.07
2019-02-04T14:34:17.896Z,25.60
2019-02-04T14:36:46.143Z,17.10
2019-02-04T14:39:14.827Z,21.37
2019-02-04T14:41:43.116Z,18.40
2019-02-04T14:44:12.427Z,15.30
2019-02-04T14:46:42.180Z,17.30
2019-02-04T14:49:21.230Z,21.83
2019-02-04T14:51:57.191Z,22.77
2019-02-04T14:54:43.351Z,20.03
2019-02-04T14:57:29.834Z,16.00
2019-02-04T14:59:59.587Z,21.50
2019-02-04T15:02:32.579Z,20.27
2019-02-04T15:05:17.618Z,19.87
2019-02-04T15:07:50.131Z,18.63
2019-02-04T15:10:22.539Z,18.07
2019-02-04T15:13:01.211Z,13.67
2019-02-04T15:15:31.035Z,19.30
2019-02-04T15:18:00.820Z,15.57
2019-02-04T15:20:36.749Z,16.33
2019-02-04T15:23:06.731Z,24.27
2019-02-04T15:25:42.184Z,23.07
2019-02-04T15:28:27.207Z,25.63
2019-02-04T15:31:15.116Z,22.67
2019-02-04T15:33:53.856Z,24.47
2019-02-04T15:36:32.536Z,20.40
2019-02-04T15:39:05.455Z,23.90
2019-02-04T15:41:35.207Z,27.07
2019-02-04T15:44:07.911Z,22.27
2019-02-04T15:46:43.627Z,18.87
2019-02-04T15:49:16.391Z,21.53
2019-02-04T15:51:46.148Z,25.27
2019-02-04T15:54:14.459Z,22.80
2019-02-04T15:56:42.680Z,21.50
2019-02-04T15:59:10.931Z,25.50
2019-02-04T16:01:39.148Z,22.47
2019-02-04T16:04:11.608Z,27.63
2019-02-04T16:06:39.835Z,22.40
2019-02-04T16:09:08.053Z,51.07
2019-02-04T16:11:36.295Z,56.73
2019-02-04T16:14:04.581Z,118.30
2019-02-04T16:16:32.828Z,149.77
2019-02-04T16:19:01.048Z,195.93
2019-02-04T16:21:29.296Z,98.27
2019-02-04T16:23:57.511Z,44.57
2019-02-04T16:26:25.755Z,40.90
2019-02-04T16:28:53.976Z,22.23
2019-02-04T16:31:22.218Z,22.63
2019-02-04T16:33:50.439Z,21.67
2019-02-04T16:36:19.083Z,20.70
2019-02-04T16:38:47.376Z,19.70
2019-02-04T16:41:15.552Z,20.33
2019-02-04T16:43:43.777Z,28.97
2019-02-04T16:46:12.014Z,24.90
2019-02-04T16:48:40.363Z,25.07
2019-02-04T16:51:11.717Z,23.33
2019-02-04T16:53:38.548Z,26.20
2019-02-04T16:56:06.865Z,26.90
2019-02-04T16:58:35.084Z,17.90
2019-02-04T17:01:03.701Z,24.00
2019-02-04T17:03:31.915Z,23.83
2019-02-04T17:06:00.239Z,20.97
2019-02-04T17:08:28.850Z,31.43
2019-02-04T17:10:57.760Z,29.33
2019-02-04T17:13:25.974Z,23.43
2019-02-04T17:15:54.223Z,25.80
2019-02-04T17:18:22.435Z,30.33
2019-02-04T17:20:50.755Z,34.33
2019-02-04T17:23:22.526Z,26.00
2019-02-04T17:25:48.855Z,43.27
2019-02-04T17:28:17.142Z,35.83
2019-02-04T17:30:45.363Z,42.97
2019-02-04T17:33:13.674Z,41.87
2019-02-04T17:35:41.970Z,38.20
2019-02-04T17:38:10.215Z,47.27
2019-02-04T17:40:38.803Z,33.20
2019-02-04T17:43:07.047Z,11.73
2019-02-04T17:45:35.273Z,43.70
2019-02-04T17:48:03.887Z,34.37
2019-02-04T17:50:32.098Z,31.30
2019-02-04T17:53:00.384Z,36.47
2019-02-04T17:55:29.366Z,48.17
2019-02-04T17:57:57.612Z,31.33
2019-02-04T18:00:27.945Z,28.33
2019-02-04T18:02:56.248Z,65.70
2019-02-04T18:05:24.542Z,38.73
2019-02-04T18:07:52.859Z,37.23
2019-02-04T18:10:21.142Z,40.57
2019-02-04T18:12:49.701Z,40.57
2019-02-04T18:15:21.616Z,34.83
2019-02-04T18:17:49.933Z,37.37
2019-02-04T18:20:18.223Z,35.17
2019-02-04T18:22:46.528Z,13.30
2019-02-04T18:25:16.288Z,33.13
2019-02-04T18:27:44.601Z,32.83
2019-02-04T18:30:20.353Z,17.13
2019-02-04T18:32:48.592Z,36.70
2019-02-04T18:35:17.185Z,28.10
2019-02-04T18:37:45.798Z,39.40
2019-02-04T18:40:20.651Z,28.60
2019-02-04T18:42:49.296Z,30.10
2019-02-04T18:45:19.051Z,27.70
2019-02-04T18:47:47.369Z,29.40
2019-02-04T18:50:16.547Z,34.13
2019-02-04T18:52:45.255Z,33.57
2019-02-04T18:55:23.836Z,32.87
2019-02-04T18:57:52.084Z,23.37
2019-02-04T19:00:24.807Z,30.50
2019-02-04T19:02:53.056Z,16.67
2019-02-04T19:05:21.672Z,28.40
2019-02-04T19:07:49.987Z,17.13
2019-02-04T19:10:21.842Z,23.47
2019-02-04T19:12:50.164Z,26.53
2019-02-04T19:15:22.451Z,31.03
2019-02-04T19:17:51.070Z,27.60
2019-02-04T19:20:20.555Z,24.27
2019-02-04T19:22:48.790Z,24.63
2019-02-04T19:25:18.080Z,27.37
2019-02-04T19:27:46.765Z,29.87
2019-02-04T19:30:25.567Z,27.10
2019-02-04T19:32:54.292Z,34.00
2019-02-04T19:35:22.584Z,20.07
2019-02-04T19:37:50.792Z,24.53
2019-02-04T19:40:19.318Z,25.20
2019-02-04T19:42:47.528Z,24.17
2019-02-04T19:45:19.910Z,24.53
2019-02-04T19:47:48.861Z,33.63
2019-02-04T19:50:21.671Z,27.87
2019-02-04T19:52:49.887Z,29.53
2019-02-04T19:55:18.202Z,28.63
2019-02-04T19:57:46.488Z,30.63
2019-02-04T20:00:16.259Z,39.93
2019-02-04T20:02:44.943Z,40.73
2019-02-04T20:05:14.728Z,37.70
2019-02-04T20:07:43.006Z,31.73
2019-02-04T20:10:11.623Z,31.60
2019-02-04T20:12:39.903Z,33.73
2019-02-04T20:15:09.683Z,60.03
2019-02-04T20:17:38.067Z,27.30
2019-02-04T20:20:07.212Z,22.73
2019-02-04T20:22:35.424Z,31.37
2019-02-04T20:25:05.039Z,24.90
2019-02-04T20:27:33.319Z,33.93
2019-02-04T20:30:01.567Z,32.50
2019-02-04T20:32:29.772Z,32.60
2019-02-04T20:34:58.315Z,29.43
2019-02-04T20:37:26.527Z,22.87
2019-02-04T20:39:54.775Z,23.53
2019-02-04T20:42:22.991Z,21.13
2019-02-04T20:44:51.231Z,29.50
2019-02-04T20:47:19.456Z,32.57
2019-02-04T20:49:47.666Z,24.57
2019-02-04T20:52:16.215Z,36.97
2019-02-04T20:54:45.278Z,29.70
2019-02-04T20:57:13.678Z,25.83
2019-02-04T20:59:41.895Z,27.97
2019-02-04T21:02:10.140Z,31.97
2019-02-04T21:04:38.355Z,18.40
2019-02-04T21:07:06.976Z,30.13
2019-02-04T21:09:35.196Z,39.90
2019-02-04T21:12:03.440Z,27.70
2019-02-04T21:14:31.664Z,38.27
2019-02-04T21:16:59.915Z,26.73
2019-02-04T21:19:28.129Z,28.13
2019-02-04T21:21:56.375Z,30.27
2019-02-04T21:24:24.885Z,31.13
2019-02-04T21:26:53.131Z,39.43
2019-02-04T21:29:21.348Z,46.53
2019-02-04T21:31:49.591Z,29.33
2019-02-04T21:34:17.803Z,32.40
2019-02-04T21:36:46.052Z,27.80
2019-02-04T21:39:14.346Z,29.50
2019-02-04T21:41:42.587Z,37.40
2019-02-04T21:44:10.805Z,29.57
2019-02-04T21:46:39.047Z,40.07
2019-02-04T21:49:07.263Z,30.77
2019-02-04T21:51:35.512Z,25.40
2019-02-04T21:54:04.099Z,32.23
2019-02-04T21:56:32.651Z,26.27
2019-02-04T21:59:00.869Z,24.57
2019-02-04T22:01:29.115Z,28.03
2019-02-04T22:03:57.335Z,20.83
2019-02-04T22:06:25.592Z,42.80
2019-02-04T22:08:53.806Z,31.27
2019-02-04T22:11:22.031Z,32.07
2019-02-04T22:13:50.263Z,26.80
2019-02-04T22:16:18.545Z,31.23
2019-02-04T22:18:46.791Z,25.10
2019-02-04T22:21:15.037Z,33.73
2019-02-04T22:23:43.253Z,21.47
2019-02-04T22:26:11.487Z,24.10
2019-02-04T22:28:39.727Z,30.43
2019-02-04T22:31:07.963Z,28.97
2019-02-04T22:33:36.194Z,28.30
2019-02-04T22:36:04.567Z,25.80
2019-02-04T22:38:32.807Z,35.73
2019-02-04T22:41:01.028Z,32.63
2019-02-04T22:43:29.272Z,44.37
2019-02-04T22:45:57.563Z,25.10
2019-02-04T22:48:26.103Z,32.63
2019-02-04T22:50:54.319Z,29.73
2019-02-04T22:53:22.567Z,28.07
2019-02-04T22:55:50.788Z,27.93
2019-02-04T22:58:19.022Z,33.63
2019-02-04T23:00:50.052Z,33.17
2019-02-04T23:03:19.867Z,34.97
2019-02-04T23:05:48.152Z,34.03
2019-02-04T23:08:16.463Z,42.90
2019-02-04T23:10:44.681Z,28.57
2019-02-04T23:13:12.918Z,30.83
2019-02-04T23:15:41.308Z,31.93
2019-02-04T23:18:09.924Z,35.13
2019-02-04T23:20:38.212Z,33.73
2019-02-04T23:23:06.526Z,39.00
2019-02-04T23:25:42.967Z,34.60
2019-02-04T23:28:05.103Z,37.20
2019-02-04T23:30:33.388Z,27.37
2019-02-04T23:33:02.045Z,35.53
2019-02-04T23:35:30.267Z,31.73
2019-02-04T23:37:58.547Z,31.93
2019-02-04T23:40:26.872Z,31.77
2019-02-04T23:42:55.079Z,36.10
2019-02-04T23:45:23.332Z,37.77
2019-02-04T23:47:52.420Z,34.60
2019-02-04T23:50:20.731Z,36.33
2019-02-04T23:52:48.943Z,34.40
2019-02-04T23:55:17.188Z,37.73
2019-02-04T23:57:45.471Z,31.23
